createdAt,value
2022-10-21T00:02:48.935Z,11.68
2022-10-21T00:07:51.559Z,11.70
2022-10-21T00:12:55.617Z,11.68
2022-10-21T00:17:58.194Z,11.66
2022-10-21T00:23:00.880Z,11.69
2022-10-21T00:28:04.915Z,11.74
2022-10-21T00:33:07.523Z,11.72
2022-10-21T00:38:10.202Z,11.68
2022-10-21T00:43:14.306Z,11.65
2022-10-21T00:48:25.342Z,11.68
2022-10-21T00:53:28.192Z,11.66
2022-10-21T00:58:33.354Z,11.67
2022-10-21T01:03:36.813Z,11.63
2022-10-21T01:08:40.538Z,11.60
2022-10-21T01:13:52.762Z,11.60
2022-10-21T01:19:00.341Z,11.55
2022-10-21T01:24:20.034Z,11.55
2022-10-21T01:29:51.150Z,11.53
2022-10-21T01:34:59.476Z,11.43
2022-10-21T01:40:06.484Z,11.40
2022-10-21T01:45:13.855Z,11.37
2022-10-21T01:50:20.365Z,11.42
2022-10-21T01:55:24.883Z,11.42
2022-10-21T02:00:27.504Z,11.44
2022-10-21T02:05:35.237Z,11.45
2022-10-21T02:10:40.221Z,11.42
2022-10-21T02:15:43.814Z,11.41
2022-10-21T02:20:51.382Z,11.45
2022-10-21T02:25:54.101Z,11.49
2022-10-21T02:31:06.140Z,11.49
2022-10-21T02:36:15.413Z,11.47
2022-10-21T02:41:22.262Z,11.49
2022-10-21T02:46:25.725Z,11.50
2022-10-21T02:51:29.781Z,11.54
2022-10-21T02:56:32.527Z,11.57
2022-10-21T03:01:35.178Z,11.60
2022-10-21T03:06:39.554Z,11.62
2022-10-21T03:11:42.220Z,11.66
2022-10-21T03:16:44.877Z,11.70
2022-10-21T03:21:48.859Z,11.74
2022-10-21T03:26:51.450Z,11.75
2022-10-21T03:31:54.033Z,11.80
2022-10-21T03:36:58.027Z,11.84
2022-10-21T03:42:00.647Z,11.89
2022-10-21T03:47:03.269Z,11.89
2022-10-21T03:52:07.237Z,11.89
2022-10-21T03:57:10.093Z,11.91
2022-10-21T04:02:12.838Z,11.97
2022-10-21T04:07:16.794Z,12.02
2022-10-21T04:12:19.388Z,12.01
2022-10-21T04:17:22.007Z,12.05
2022-10-21T04:22:26.133Z,12.09
2022-10-21T04:27:28.740Z,12.08
2022-10-21T04:32:31.370Z,12.09
2022-10-21T04:37:35.334Z,12.09
2022-10-21T04:42:37.951Z,12.11
2022-10-21T04:47:40.861Z,12.13
2022-10-21T04:52:45.160Z,12.15
2022-10-21T04:57:47.774Z,12.16
2022-10-21T05:02:50.389Z,12.18
2022-10-21T05:07:54.727Z,12.21
2022-10-21T05:12:58.064Z,12.21
2022-10-21T05:18:00.777Z,12.20
2022-10-21T05:23:04.860Z,12.19
2022-10-21T05:28:07.432Z,12.19
2022-10-21T05:33:10.129Z,12.20
2022-10-21T05:38:14.028Z,12.21
2022-10-21T05:43:16.671Z,12.20
2022-10-21T05:48:19.347Z,12.22
2022-10-21T05:53:24.708Z,12.21
2022-10-21T05:58:28.402Z,12.19
2022-10-21T06:03:33.592Z,12.14
2022-10-21T06:08:39.643Z,12.14
2022-10-21T06:13:43.095Z,12.15
2022-10-21T06:18:45.746Z,12.16
2022-10-21T06:23:53.857Z,12.17
2022-10-21T06:28:56.605Z,12.18
2022-10-21T06:33:59.237Z,12.18
2022-10-21T06:39:03.220Z,12.19
2022-10-21T06:44:06.162Z,12.20
2022-10-21T06:49:09.661Z,12.23
2022-10-21T06:54:13.864Z,12.28
2022-10-21T06:59:16.743Z,12.27
2022-10-21T07:04:19.383Z,12.30
2022-10-21T07:09:23.479Z,12.31
2022-10-21T07:14:26.707Z,12.30
2022-10-21T07:19:29.421Z,12.34
2022-10-21T07:24:33.453Z,12.39
2022-10-21T07:29:36.084Z,12.39
2022-10-21T07:34:38.830Z,12.36
2022-10-21T07:39:42.809Z,12.35
2022-10-21T07:44:45.389Z,12.37
2022-10-21T07:49:48.033Z,12.41
2022-10-21T07:54:52.092Z,12.49
2022-10-21T07:59:54.872Z,12.53
2022-10-21T08:04:57.471Z,12.56
2022-10-21T08:10:01.595Z,12.59
2022-10-21T08:15:04.974Z,12.61
2022-10-21T08:20:08.999Z,12.63
2022-10-21T08:25:16.674Z,12.62
2022-10-21T08:30:19.402Z,12.70
2022-10-21T08:35:22.207Z,12.79
2022-10-21T08:40:26.524Z,12.94
2022-10-21T08:45:32.011Z,13.09
2022-10-21T08:50:39.046Z,13.17
2022-10-21T08:55:45.096Z,13.32
2022-10-21T09:00:49.771Z,13.57
2022-10-21T09:06:08.933Z,13.82
2022-10-21T09:11:20.370Z,14.10
2022-10-21T09:16:26.309Z,14.24
2022-10-21T09:21:39.130Z,14.31
2022-10-21T09:26:44.647Z,14.47
2022-10-21T09:31:53.084Z,14.65
2022-10-21T09:36:59.336Z,14.77
2022-10-21T09:42:07.344Z,14.80
2022-10-21T09:47:23.295Z,14.90
2022-10-21T09:52:30.461Z,15.00
2022-10-21T09:57:42.315Z,14.99
2022-10-21T10:02:46.449Z,14.91
2022-10-21T10:07:49.124Z,14.97
2022-10-21T10:12:58.496Z,15.03
2022-10-21T10:18:01.569Z,15.06
2022-10-21T10:23:16.928Z,15.07
2022-10-21T10:28:25.956Z,15.07
2022-10-21T10:33:30.927Z,15.07
2022-10-21T10:38:36.114Z,15.08
2022-10-21T10:43:45.793Z,15.09
2022-10-21T10:48:51.541Z,15.14
2022-10-21T10:54:02.384Z,15.25
2022-10-21T10:59:17.824Z,15.36
2022-10-21T11:04:24.835Z,15.46
2022-10-21T11:09:28.250Z,15.60
2022-10-21T11:14:32.453Z,15.58
2022-10-21T11:19:43.981Z,15.53
2022-10-21T11:24:57.543Z,15.50
2022-10-21T11:30:06.922Z,15.52
2022-10-21T11:35:27.670Z,15.67
2022-10-21T11:40:34.280Z,15.79
2022-10-21T11:45:49.348Z,15.76
2022-10-21T11:50:59.504Z,15.66
2022-10-21T11:56:12.822Z,15.62
2022-10-21T12:01:27.678Z,15.58
2022-10-21T12:06:35.007Z,15.51
2022-10-21T12:11:40.570Z,15.43
2022-10-21T12:16:45.489Z,15.31
2022-10-21T12:21:48.390Z,15.18
2022-10-21T12:26:54.550Z,15.06
2022-10-21T12:32:04.846Z,14.95
2022-10-21T12:37:43.487Z,14.81
2022-10-21T12:42:48.089Z,14.74
2022-10-21T12:47:52.279Z,14.68
2022-10-21T12:53:07.672Z,14.62
2022-10-21T12:58:23.900Z,14.58
2022-10-21T13:03:51.013Z,14.54
2022-10-21T13:08:56.095Z,14.50
2022-10-21T13:14:33.521Z,14.47
2022-10-21T13:19:40.230Z,14.44
2022-10-21T13:24:43.391Z,14.43
2022-10-21T13:29:48.324Z,14.39
2022-10-21T13:35:32.321Z,14.34
2022-10-21T13:40:46.644Z,14.34
2022-10-21T13:45:50.834Z,14.34
2022-10-21T13:50:54.221Z,14.35
2022-10-21T13:56:00.786Z,14.36
2022-10-21T14:01:11.871Z,14.36
2022-10-21T14:06:19.779Z,14.37
2022-10-21T14:11:28.596Z,14.39
2022-10-21T14:16:33.972Z,14.40
2022-10-21T14:21:38.178Z,14.41
2022-10-21T14:26:46.135Z,14.46
2022-10-21T14:31:49.137Z,14.49
2022-10-21T14:37:06.756Z,14.55
2022-10-21T14:42:18.300Z,14.59
2022-10-21T14:47:23.352Z,14.60
2022-10-21T14:52:34.031Z,14.61
2022-10-21T14:57:40.691Z,14.60
2022-10-21T15:02:43.840Z,14.59
2022-10-21T15:07:46.684Z,14.60
2022-10-21T15:12:52.753Z,14.61
2022-10-21T15:18:02.800Z,14.61
2022-10-21T15:23:19.906Z,14.59
2022-10-21T15:28:26.055Z,14.59
2022-10-21T15:33:29.080Z,14.58
2022-10-21T15:38:32.133Z,14.55
2022-10-21T15:43:36.139Z,14.55
2022-10-21T15:48:38.899Z,14.52
2022-10-21T15:53:44.483Z,14.48
2022-10-21T15:58:48.709Z,14.48
2022-10-21T16:03:51.297Z,14.46
2022-10-21T16:08:54.043Z,14.45
2022-10-21T16:13:58.196Z,14.41
2022-10-21T16:19:00.960Z,14.37
2022-10-21T16:24:03.590Z,14.32
2022-10-21T16:29:07.993Z,14.29
2022-10-21T16:34:11.725Z,14.27
2022-10-21T16:39:16.039Z,14.25
2022-10-21T16:44:20.067Z,14.22
2022-10-21T16:49:24.740Z,14.19
2022-10-21T16:54:27.494Z,14.15
2022-10-21T16:59:31.477Z,14.11
2022-10-21T17:04:34.113Z,14.09
2022-10-21T17:09:36.778Z,14.07
2022-10-21T17:14:41.047Z,14.05
2022-10-21T17:19:43.744Z,14.04
2022-10-21T17:24:47.090Z,14.03
2022-10-21T17:29:51.121Z,14.01
2022-10-21T17:34:53.921Z,13.99
2022-10-21T17:39:56.548Z,13.97
2022-10-21T17:45:03.667Z,13.99
2022-10-21T17:50:07.950Z,13.99
2022-10-21T17:55:10.761Z,13.97
2022-10-21T18:00:15.278Z,13.98
2022-10-21T18:05:18.501Z,13.96
2022-10-21T18:10:21.253Z,13.95
2022-10-21T18:15:27.725Z,13.97
2022-10-21T18:20:30.446Z,13.98
2022-10-21T18:25:33.040Z,13.97
2022-10-21T18:30:42.659Z,13.95
2022-10-21T18:35:45.263Z,13.95
2022-10-21T18:40:56.468Z,13.93
2022-10-21T18:46:06.423Z,13.91
2022-10-21T18:51:11.088Z,13.91
2022-10-21T18:56:15.481Z,13.90
2022-10-21T19:01:20.840Z,13.91
2022-10-21T19:06:36.974Z,13.89
2022-10-21T19:11:40.220Z,13.84
2022-10-21T19:16:45.006Z,13.85
2022-10-21T19:21:47.756Z,13.85
2022-10-21T19:26:53.964Z,13.86
2022-10-21T19:31:57.953Z,13.86
2022-10-21T19:37:01.246Z,13.89
2022-10-21T19:42:03.880Z,13.92
2022-10-21T19:47:07.864Z,13.94
2022-10-21T19:52:10.693Z,13.95
2022-10-21T19:57:13.374Z,13.93
2022-10-21T20:02:17.378Z,13.92
2022-10-21T20:07:20.001Z,13.92
2022-10-21T20:12:22.740Z,13.93
2022-10-21T20:17:26.872Z,13.95
2022-10-21T20:22:29.470Z,13.98
2022-10-21T20:27:32.474Z,14.00
2022-10-21T20:32:36.433Z,14.01
2022-10-21T20:37:40.279Z,14.02
2022-10-21T20:42:47.704Z,13.97
2022-10-21T20:47:54.208Z,13.97
2022-10-21T20:52:56.952Z,13.97
2022-10-21T20:57:59.628Z,13.98
2022-10-21T21:03:03.830Z,13.99
2022-10-21T21:08:06.917Z,14.00
2022-10-21T21:13:09.619Z,13.98
2022-10-21T21:18:14.136Z,13.94
2022-10-21T21:23:16.868Z,13.93
2022-10-21T21:28:19.859Z,13.91
2022-10-21T21:33:23.912Z,13.88
2022-10-21T21:38:27.776Z,13.88
2022-10-21T21:43:31.214Z,13.89
2022-10-21T21:48:35.828Z,13.86
2022-10-21T21:53:39.126Z,13.87
2022-10-21T21:58:42.447Z,13.86
2022-10-21T22:03:47.432Z,13.88
2022-10-21T22:08:50.875Z,13.87
2022-10-21T22:13:54.043Z,13.85
2022-10-21T22:19:00.519Z,13.85
2022-10-21T22:24:03.172Z,13.82
2022-10-21T22:29:05.773Z,13.82
2022-10-21T22:34:12.046Z,13.86
2022-10-21T22:39:14.908Z,13.90
2022-10-21T22:44:17.563Z,13.93
2022-10-21T22:49:21.647Z,13.94
2022-10-21T22:54:46.432Z,13.98
2022-10-21T22:59:52.112Z,13.98
2022-10-21T23:04:57.138Z,13.94
2022-10-21T23:09:59.764Z,13.89
2022-10-21T23:15:02.476Z,13.85
2022-10-21T23:20:07.708Z,13.84
2022-10-21T23:25:10.751Z,13.87
2022-10-21T23:30:14.219Z,13.91
2022-10-21T23:35:18.896Z,13.96
2022-10-21T23:40:21.757Z,13.97
2022-10-21T23:45:24.654Z,14.00
2022-10-21T23:50:29.062Z,14.00
